createdAt,value
2022-11-14T00:00:42.994Z,3.11
2022-11-14T00:01:44.938Z,3.15
2022-11-14T00:02:46.882Z,3.16
2022-11-14T00:03:49.741Z,2.87
2022-11-14T00:04:51.615Z,3.46
2022-11-14T00:05:53.511Z,3.26
2022-11-14T00:06:56.026Z,2.85
2022-11-14T00:07:59.094Z,3.25
2022-11-14T00:09:01.023Z,3.77
2022-11-14T00:10:04.006Z,3.08
2022-11-14T00:11:05.918Z,3.43
2022-11-14T00:12:09.179Z,3.53
2022-11-14T00:13:11.169Z,3.12
2022-11-14T00:14:13.305Z,3.62
2022-11-14T00:15:20.411Z,2.82
2022-11-14T00:16:22.553Z,2.86
2022-11-14T00:17:24.860Z,2.93
2022-11-14T00:18:27.060Z,2.52
2022-11-14T00:19:29.484Z,2.79
2022-11-14T00:20:31.856Z,2.90
2022-11-14T00:21:33.743Z,3.27
2022-11-14T00:22:36.067Z,3.27
2022-11-14T00:23:37.943Z,3.20
2022-11-14T00:24:39.835Z,3.48
2022-11-14T00:25:43.803Z,3.29
2022-11-14T00:26:46.019Z,3.38
2022-11-14T00:27:47.896Z,3.49
2022-11-14T00:28:50.177Z,3.16
2022-11-14T00:29:52.252Z,3.09
2022-11-14T00:30:54.224Z,3.89
2022-11-14T00:31:56.078Z,3.05
2022-11-14T00:32:57.960Z,3.05
2022-11-14T00:33:59.845Z,2.77
2022-11-14T00:35:01.707Z,3.18
2022-11-14T00:36:04.710Z,3.46
2022-11-14T00:37:07.645Z,2.77
2022-11-14T00:38:09.559Z,3.27
2022-11-14T00:39:13.496Z,2.90
2022-11-14T00:40:19.710Z,2.46
2022-11-14T00:41:21.819Z,2.97
2022-11-14T00:42:23.713Z,2.87
2022-11-14T00:43:25.581Z,2.97
2022-11-14T00:44:27.444Z,3.04
2022-11-14T00:45:29.816Z,2.94
2022-11-14T00:46:31.875Z,3.25
2022-11-14T00:47:34.233Z,3.57
2022-11-14T00:48:36.088Z,3.23
2022-11-14T00:49:38.216Z,4.14
2022-11-14T00:50:40.791Z,3.70
2022-11-14T00:51:42.691Z,3.44
2022-11-14T00:52:44.605Z,3.57
2022-11-14T00:53:46.477Z,3.88
2022-11-14T00:54:48.427Z,4.33
2022-11-14T00:55:50.313Z,4.13
2022-11-14T00:56:52.411Z,4.35
2022-11-14T00:57:54.270Z,4.29
2022-11-14T00:58:56.172Z,3.64
2022-11-14T00:59:58.075Z,3.94
2022-11-14T01:01:01.312Z,3.91
2022-11-14T01:02:03.447Z,3.76
2022-11-14T01:03:05.970Z,3.46
2022-11-14T01:04:07.930Z,4.18
2022-11-14T01:05:10.062Z,3.08
2022-11-14T01:06:12.543Z,2.91
2022-11-14T01:07:14.424Z,2.82
2022-11-14T01:08:19.432Z,3.07
2022-11-14T01:09:22.641Z,2.92
2022-11-14T01:10:25.077Z,3.74
2022-11-14T01:11:27.430Z,3.63
2022-11-14T01:12:29.313Z,3.37
2022-11-14T01:13:31.977Z,3.45
2022-11-14T01:14:33.842Z,4.03
2022-11-14T01:15:47.436Z,3.64
2022-11-14T01:16:50.208Z,3.52
2022-11-14T01:17:52.148Z,3.83
2022-11-14T01:18:55.237Z,4.05
2022-11-14T01:19:57.154Z,3.39
2022-11-14T01:21:08.191Z,3.47
2022-11-14T01:22:10.106Z,3.79
2022-11-14T01:23:14.714Z,3.59
2022-11-14T01:24:18.405Z,3.95
2022-11-14T01:25:20.324Z,3.83
2022-11-14T01:26:22.287Z,3.29
2022-11-14T01:27:25.111Z,3.68
2022-11-14T01:28:27.254Z,3.42
2022-11-14T01:29:30.249Z,3.37
2022-11-14T01:30:32.234Z,3.55
2022-11-14T01:31:34.413Z,3.35
2022-11-14T01:32:36.699Z,4.29
2022-11-14T01:33:39.367Z,3.66
2022-11-14T01:34:41.261Z,3.65
2022-11-14T01:35:43.124Z,3.90
2022-11-14T01:36:45.430Z,4.44
2022-11-14T01:37:47.382Z,3.75
2022-11-14T01:38:53.582Z,3.77
2022-11-14T01:39:55.696Z,4.20
2022-11-14T01:40:58.329Z,3.54
2022-11-14T01:42:00.208Z,4.22
2022-11-14T01:43:12.371Z,4.08
2022-11-14T01:45:51.431Z,3.87
2022-11-14T01:46:57.083Z,3.86
2022-11-14T01:47:59.013Z,3.75
2022-11-14T01:49:08.546Z,3.19
2022-11-14T01:52:42.535Z,2.73
2022-11-14T01:53:47.240Z,3.26
2022-11-14T01:54:54.803Z,2.91
2022-11-14T01:56:00.659Z,3.03
2022-11-14T01:57:05.702Z,3.00
2022-11-14T01:58:07.636Z,3.11
2022-11-14T01:59:13.252Z,2.99
2022-11-14T02:00:15.815Z,3.33
2022-11-14T02:01:18.079Z,3.13
2022-11-14T02:02:22.959Z,3.18
2022-11-14T02:03:25.468Z,3.20
2022-11-14T02:04:30.340Z,3.10
2022-11-14T02:05:33.094Z,3.28
2022-11-14T02:06:36.206Z,3.16
2022-11-14T02:07:40.399Z,3.47
2022-11-14T02:08:44.014Z,4.06
2022-11-14T02:09:48.245Z,3.52
2022-11-14T02:10:50.247Z,3.93
2022-11-14T02:11:55.937Z,4.09
2022-11-14T02:12:57.838Z,3.27
2022-11-14T02:14:00.595Z,3.12
2022-11-14T02:15:03.751Z,3.67
2022-11-14T02:16:06.611Z,3.58
2022-11-14T02:18:12.801Z,3.03
2022-11-14T02:19:15.212Z,3.36
2022-11-14T02:20:30.436Z,3.33
2022-11-14T02:21:32.353Z,3.14
2022-11-14T02:22:34.654Z,3.23
2022-11-14T02:23:36.642Z,3.13
2022-11-14T02:24:38.491Z,3.19
2022-11-14T02:25:40.691Z,3.12
2022-11-14T02:26:43.386Z,2.85
2022-11-14T02:27:45.591Z,3.43
2022-11-14T02:28:49.286Z,3.31
2022-11-14T02:29:51.361Z,3.19
2022-11-14T02:30:55.122Z,2.87
2022-11-14T02:31:59.343Z,3.19
2022-11-14T02:33:10.936Z,3.35
2022-11-14T02:34:05.894Z,3.69
2022-11-14T02:35:08.471Z,3.31
2022-11-14T02:36:11.201Z,4.21
2022-11-14T02:37:13.058Z,4.77
2022-11-14T02:38:14.926Z,5.61
2022-11-14T02:39:16.785Z,5.49
2022-11-14T02:40:19.012Z,5.63
2022-11-14T02:41:21.343Z,5.55
2022-11-14T02:42:24.709Z,5.51
2022-11-14T02:43:26.605Z,5.78
2022-11-14T02:44:28.495Z,5.79
2022-11-14T02:45:30.370Z,5.14
2022-11-14T02:46:32.638Z,5.19
2022-11-14T02:47:34.500Z,5.41
2022-11-14T02:48:36.471Z,5.95
2022-11-14T02:49:38.320Z,5.09
2022-11-14T02:50:40.312Z,4.99
2022-11-14T02:51:42.216Z,4.93
2022-11-14T02:52:44.107Z,4.83
2022-11-14T02:53:46.205Z,4.79
2022-11-14T02:54:51.708Z,4.17
2022-11-14T02:55:51.921Z,4.03
2022-11-14T02:56:54.077Z,3.63
2022-11-14T02:57:55.938Z,3.64
2022-11-14T02:58:59.414Z,4.15
2022-11-14T03:00:01.430Z,4.04
2022-11-14T03:01:20.374Z,5.13
2022-11-14T03:02:07.544Z,4.15
2022-11-14T03:03:09.477Z,3.95
2022-11-14T03:04:11.425Z,4.19
2022-11-14T03:05:13.483Z,4.97
2022-11-14T03:06:15.646Z,5.77
2022-11-14T03:07:17.557Z,5.81
2022-11-14T03:08:19.696Z,6.61
2022-11-14T03:09:21.544Z,6.65
2022-11-14T03:10:24.185Z,6.73
2022-11-14T03:11:26.055Z,7.12
2022-11-14T03:12:27.987Z,7.42
2022-11-14T03:13:30.063Z,6.63
2022-11-14T03:14:31.953Z,6.39
2022-11-14T03:15:38.251Z,5.72
2022-11-14T03:16:40.303Z,5.76
2022-11-14T03:17:42.239Z,5.31
2022-11-14T03:18:44.111Z,5.01
2022-11-14T03:19:45.964Z,4.92
2022-11-14T03:20:48.528Z,4.80
2022-11-14T03:21:50.421Z,5.40
2022-11-14T03:22:52.309Z,4.30
2022-11-14T03:23:54.161Z,4.53
2022-11-14T03:24:56.007Z,4.44
2022-11-14T03:26:02.012Z,4.49
2022-11-14T03:27:04.055Z,3.89
2022-11-14T03:28:06.021Z,3.39
2022-11-14T03:29:08.229Z,4.28
2022-11-14T03:30:11.517Z,3.59
2022-11-14T03:31:14.209Z,3.24
2022-11-14T03:32:16.128Z,3.73
2022-11-14T03:33:17.979Z,3.65
2022-11-14T03:34:19.828Z,3.87
2022-11-14T03:35:21.781Z,3.95
2022-11-14T03:36:23.773Z,4.19
2022-11-14T03:37:25.632Z,3.72
2022-11-14T03:38:27.937Z,3.87
2022-11-14T03:39:30.401Z,3.85
2022-11-14T03:40:32.563Z,4.15
2022-11-14T03:41:34.421Z,4.08
2022-11-14T03:42:36.289Z,4.09
2022-11-14T03:43:38.170Z,4.30
2022-11-14T03:44:40.027Z,4.15
2022-11-14T03:45:42.084Z,3.53
2022-11-14T03:46:44.608Z,3.94
2022-11-14T03:47:46.484Z,3.32
2022-11-14T03:48:48.460Z,3.73
2022-11-14T03:49:50.455Z,4.39
2022-11-14T03:50:52.431Z,3.91
2022-11-14T03:51:54.313Z,4.33
2022-11-14T03:52:56.333Z,4.11
2022-11-14T03:53:58.379Z,4.32
2022-11-14T03:55:00.369Z,4.05
2022-11-14T03:56:03.081Z,4.05
2022-11-14T03:57:04.971Z,4.43
2022-11-14T03:58:06.886Z,4.35
2022-11-14T03:59:09.751Z,4.52
2022-11-14T04:00:13.882Z,3.66
2022-11-14T04:01:15.978Z,4.26
2022-11-14T04:02:18.006Z,4.45
2022-11-14T04:03:19.892Z,3.87
2022-11-14T04:04:22.503Z,3.64
2022-11-14T04:05:24.471Z,4.60
2022-11-14T04:06:26.824Z,4.47
2022-11-14T04:07:28.738Z,3.99
2022-11-14T04:08:32.133Z,4.62
2022-11-14T04:09:34.419Z,3.98
2022-11-14T04:10:36.432Z,4.08
2022-11-14T04:11:38.437Z,4.17
2022-11-14T04:12:40.305Z,4.48
2022-11-14T04:13:42.179Z,4.21
2022-11-14T04:14:45.382Z,4.67
2022-11-14T04:15:55.629Z,5.01
2022-11-14T04:16:57.650Z,3.99
2022-11-14T04:18:00.044Z,4.32
2022-11-14T04:19:01.966Z,3.90
2022-11-14T04:20:04.921Z,4.49
2022-11-14T04:21:07.012Z,4.59
2022-11-14T04:22:08.906Z,4.54
2022-11-14T04:23:10.826Z,4.90
2022-11-14T04:24:12.679Z,3.97
2022-11-14T04:25:14.589Z,4.95
2022-11-14T04:26:17.438Z,5.31
2022-11-14T04:27:19.315Z,4.73
2022-11-14T04:28:21.209Z,4.97
2022-11-14T04:29:23.406Z,4.75
2022-11-14T04:30:25.402Z,4.84
2022-11-14T04:31:27.271Z,4.89
2022-11-14T04:32:29.445Z,5.33
2022-11-14T04:33:31.434Z,3.97
2022-11-14T04:34:33.321Z,4.33
2022-11-14T04:35:35.223Z,4.65
2022-11-14T04:36:37.205Z,4.20
2022-11-14T04:37:39.081Z,3.66
2022-11-14T04:38:40.937Z,4.04
2022-11-14T04:39:42.827Z,4.03
2022-11-14T04:40:51.209Z,3.45
2022-11-14T04:41:53.130Z,4.19
2022-11-14T04:42:55.010Z,4.11
2022-11-14T04:43:56.901Z,4.56
2022-11-14T04:44:58.801Z,4.37
2022-11-14T04:46:00.964Z,3.63
2022-11-14T04:47:03.163Z,3.80
2022-11-14T04:48:06.293Z,3.43
2022-11-14T04:49:08.793Z,4.24
2022-11-14T04:50:13.211Z,4.26
2022-11-14T04:51:16.134Z,3.64
2022-11-14T04:52:21.622Z,4.06
2022-11-14T04:53:24.926Z,4.22
2022-11-14T04:54:28.242Z,3.98
2022-11-14T04:55:30.143Z,4.24
2022-11-14T04:56:32.382Z,4.54
2022-11-14T04:57:36.428Z,5.61
2022-11-14T04:58:45.851Z,7.82
2022-11-14T04:59:47.783Z,12.03
2022-11-14T05:00:52.182Z,10.84
2022-11-14T05:01:54.774Z,11.98
2022-11-14T05:02:59.875Z,7.53
2022-11-14T05:04:02.785Z,6.32
2022-11-14T05:05:06.206Z,6.21
2022-11-14T05:06:09.825Z,6.17
2022-11-14T05:07:15.151Z,5.16
2022-11-14T05:08:17.184Z,4.72
2022-11-14T05:09:21.466Z,4.55
2022-11-14T05:10:25.389Z,4.56
2022-11-14T05:11:29.536Z,4.66
2022-11-14T05:12:35.283Z,4.72
2022-11-14T05:13:38.101Z,4.72
2022-11-14T05:14:40.108Z,5.85
2022-11-14T05:15:45.897Z,5.06
2022-11-14T05:16:47.928Z,6.14
2022-11-14T05:17:49.816Z,6.19
2022-11-14T05:18:53.898Z,5.57
2022-11-14T05:19:56.017Z,5.78
2022-11-14T05:21:02.233Z,5.75
2022-11-14T05:22:04.669Z,6.14
2022-11-14T05:23:06.986Z,5.99
2022-11-14T05:24:08.907Z,4.80
2022-11-14T05:25:10.757Z,5.86
2022-11-14T05:26:15.630Z,4.85
2022-11-14T05:27:17.559Z,5.19
2022-11-14T05:28:19.416Z,6.50
2022-11-14T05:29:21.330Z,5.68
2022-11-14T05:30:23.401Z,4.96
2022-11-14T05:31:25.274Z,5.26
2022-11-14T05:32:27.167Z,5.01
2022-11-14T05:33:30.783Z,5.32
2022-11-14T05:34:32.685Z,5.92
2022-11-14T05:35:35.301Z,4.49
2022-11-14T05:36:39.560Z,4.30
2022-11-14T05:37:44.900Z,4.65
2022-11-14T05:38:47.104Z,4.85
2022-11-14T05:39:49.672Z,4.85
2022-11-14T05:40:51.645Z,4.90
2022-11-14T05:41:53.515Z,4.57
2022-11-14T05:42:56.753Z,4.91
2022-11-14T05:43:58.796Z,4.31
2022-11-14T05:45:00.786Z,5.44
2022-11-14T05:46:06.139Z,5.28
2022-11-14T05:47:08.080Z,6.37
2022-11-14T05:48:10.321Z,6.27
2022-11-14T05:49:12.348Z,5.29
2022-11-14T05:50:14.703Z,5.46
2022-11-14T05:51:16.581Z,5.34
2022-11-14T05:52:18.563Z,5.30
2022-11-14T05:53:20.441Z,5.75
2022-11-14T05:54:22.363Z,6.17
2022-11-14T05:55:25.293Z,5.53
2022-11-14T05:56:27.478Z,5.51
2022-11-14T05:57:30.076Z,4.67
2022-11-14T05:58:34.135Z,4.47
2022-11-14T05:59:36.039Z,5.60
2022-11-14T06:00:44.272Z,5.31
2022-11-14T06:01:42.002Z,4.61
2022-11-14T06:02:44.631Z,5.44
2022-11-14T06:03:47.751Z,4.39
2022-11-14T06:04:49.634Z,4.79
2022-11-14T06:05:51.493Z,4.41
2022-11-14T06:06:53.542Z,5.15
2022-11-14T06:07:57.524Z,5.13
2022-11-14T06:08:59.444Z,5.61
2022-11-14T06:10:05.971Z,5.15
2022-11-14T06:11:10.972Z,5.62
2022-11-14T06:12:12.883Z,4.98
2022-11-14T06:13:14.737Z,5.86
2022-11-14T06:14:16.685Z,5.04
2022-11-14T06:15:18.668Z,5.49
2022-11-14T06:16:22.021Z,5.89
2022-11-14T06:17:24.529Z,5.90
2022-11-14T06:18:27.545Z,6.11
2022-11-14T06:19:29.686Z,6.83
2022-11-14T06:20:31.873Z,7.83
2022-11-14T06:21:33.907Z,6.05
2022-11-14T06:22:35.780Z,6.98
2022-11-14T06:23:42.989Z,6.67
2022-11-14T06:24:46.305Z,6.27
2022-11-14T06:25:48.718Z,6.65
2022-11-14T06:26:50.924Z,6.27
2022-11-14T06:27:52.806Z,6.27
2022-11-14T06:28:54.907Z,6.21
2022-11-14T06:29:57.375Z,6.53
2022-11-14T06:31:02.513Z,6.85
2022-11-14T06:32:05.510Z,6.10
2022-11-14T06:33:07.585Z,6.17
2022-11-14T06:34:11.010Z,6.13
2022-11-14T06:35:13.314Z,6.09
2022-11-14T06:36:15.816Z,5.06
2022-11-14T06:37:17.711Z,5.04
2022-11-14T06:38:20.684Z,4.74
2022-11-14T06:39:22.580Z,4.81
2022-11-14T06:40:24.570Z,3.78
2022-11-14T06:41:26.456Z,3.33
2022-11-14T06:42:28.331Z,3.07
2022-11-14T06:43:32.935Z,3.88
2022-11-14T06:44:34.885Z,4.25
2022-11-14T06:45:36.752Z,5.28
2022-11-14T06:46:39.585Z,3.76
2022-11-14T06:47:41.521Z,4.72
2022-11-14T06:48:45.474Z,4.23
2022-11-14T06:49:47.404Z,3.65
2022-11-14T06:50:55.454Z,3.87
2022-11-14T06:51:57.346Z,4.13
2022-11-14T06:52:59.301Z,4.55
2022-11-14T06:54:01.201Z,4.58
2022-11-14T06:55:03.656Z,5.21
2022-11-14T06:56:10.129Z,5.22
2022-11-14T06:57:13.369Z,4.85
2022-11-14T06:58:16.384Z,5.34
2022-11-14T06:59:18.887Z,4.35
2022-11-14T07:00:21.604Z,4.52
2022-11-14T07:01:25.042Z,5.71
2022-11-14T07:02:27.105Z,5.15
2022-11-14T07:03:29.007Z,6.13
2022-11-14T07:04:30.967Z,4.91
2022-11-14T07:05:32.863Z,4.27
2022-11-14T07:06:34.839Z,4.65
2022-11-14T07:07:36.899Z,5.30
2022-11-14T07:08:38.819Z,4.74
2022-11-14T07:09:40.681Z,4.23
2022-11-14T07:10:43.796Z,4.26
2022-11-14T07:11:46.178Z,5.21
2022-11-14T07:12:48.076Z,6.04
2022-11-14T07:13:51.496Z,4.41
2022-11-14T07:14:53.798Z,3.88
2022-11-14T07:15:59.384Z,3.63
2022-11-14T07:17:03.247Z,3.73
2022-11-14T07:18:05.181Z,3.66
2022-11-14T07:19:07.783Z,5.43
2022-11-14T07:20:11.050Z,4.92
2022-11-14T07:21:12.936Z,3.31
2022-11-14T07:22:14.944Z,4.20
2022-11-14T07:23:22.554Z,7.36
2022-11-14T07:24:20.736Z,5.42
2022-11-14T07:25:22.623Z,3.62
2022-11-14T07:26:24.576Z,3.91
2022-11-14T07:27:27.475Z,3.81
2022-11-14T07:28:30.280Z,3.69
2022-11-14T07:29:32.581Z,3.38
2022-11-14T07:30:34.660Z,2.63
2022-11-14T07:31:36.626Z,2.83
2022-11-14T07:32:38.491Z,3.13
2022-11-14T07:33:41.330Z,3.24
2022-11-14T07:34:43.201Z,2.98
2022-11-14T07:35:45.499Z,2.83
2022-11-14T07:36:47.493Z,2.93
2022-11-14T07:37:50.250Z,6.00
2022-11-14T07:38:52.760Z,3.77
2022-11-14T07:39:54.617Z,3.07
2022-11-14T07:41:00.247Z,5.05
2022-11-14T07:42:02.351Z,4.06
2022-11-14T07:43:04.406Z,3.77
2022-11-14T07:44:06.567Z,4.17
2022-11-14T07:45:10.187Z,2.90
2022-11-14T07:46:15.103Z,2.56
2022-11-14T07:47:17.002Z,2.99
2022-11-14T07:48:19.313Z,2.59
2022-11-14T07:49:21.285Z,2.76
2022-11-14T07:50:26.305Z,2.57
2022-11-14T07:51:28.206Z,5.96
2022-11-14T07:52:30.070Z,3.76
2022-11-14T07:53:32.839Z,3.03
2022-11-14T07:54:35.827Z,5.41
2022-11-14T07:55:39.162Z,7.59
2022-11-14T07:56:42.316Z,6.13
2022-11-14T07:57:49.168Z,4.27
2022-11-14T07:58:50.432Z,4.71
2022-11-14T07:59:52.295Z,4.21
2022-11-14T08:00:54.436Z,3.35
2022-11-14T08:01:56.449Z,3.25
2022-11-14T08:02:58.325Z,2.99
2022-11-14T08:04:00.220Z,4.40
2022-11-14T08:05:02.531Z,4.45
2022-11-14T08:06:09.682Z,3.54
2022-11-14T08:07:11.857Z,2.96
2022-11-14T08:08:15.077Z,3.16
2022-11-14T08:09:17.271Z,4.16
2022-11-14T08:10:20.339Z,2.96
2022-11-14T08:11:34.556Z,3.28
2022-11-14T08:12:26.048Z,3.42
2022-11-14T08:13:32.579Z,4.00
2022-11-14T08:14:34.383Z,4.95
2022-11-14T08:15:36.395Z,5.51
2022-11-14T08:16:38.872Z,3.55
2022-11-14T08:17:40.967Z,3.45
2022-11-14T08:18:42.833Z,4.09
2022-11-14T08:19:44.705Z,3.51
2022-11-14T08:20:48.674Z,2.84
2022-11-14T08:21:50.667Z,3.16
2022-11-14T08:22:56.278Z,2.23
2022-11-14T08:23:59.216Z,2.88
2022-11-14T08:25:01.906Z,4.32
2022-11-14T08:26:04.174Z,7.52
2022-11-14T08:27:06.027Z,5.51
2022-11-14T08:28:08.282Z,3.80
2022-11-14T08:29:10.701Z,2.53
2022-11-14T08:30:13.717Z,4.59
2022-11-14T08:31:15.600Z,3.06
2022-11-14T08:32:18.531Z,3.13
2022-11-14T08:33:20.572Z,3.94
2022-11-14T08:34:22.429Z,2.50
2022-11-14T08:35:24.523Z,2.81
2022-11-14T08:36:26.509Z,2.41
2022-11-14T08:37:28.879Z,2.41
2022-11-14T08:38:32.418Z,2.65
2022-11-14T08:39:35.564Z,2.44
2022-11-14T08:40:38.088Z,2.36
2022-11-14T08:41:39.958Z,2.23
2022-11-14T08:42:41.960Z,2.89
2022-11-14T08:43:44.354Z,2.23
2022-11-14T08:44:51.719Z,2.56
2022-11-14T08:45:51.669Z,2.27
2022-11-14T08:46:53.775Z,2.24
2022-11-14T08:47:56.889Z,1.93
2022-11-14T08:48:59.104Z,2.00
2022-11-14T08:50:01.181Z,2.49
2022-11-14T08:51:06.767Z,2.60
2022-11-14T08:52:15.318Z,2.12
2022-11-14T08:53:14.351Z,2.07
2022-11-14T08:54:16.833Z,1.61
2022-11-14T08:55:20.869Z,2.12
2022-11-14T08:56:23.221Z,2.32
2022-11-14T08:57:25.099Z,2.27
2022-11-14T08:58:29.272Z,2.89
2022-11-14T08:59:32.671Z,2.48
2022-11-14T09:00:35.958Z,1.69
2022-11-14T09:01:38.578Z,3.98
2022-11-14T09:02:40.498Z,5.34
2022-11-14T09:03:42.464Z,2.95
2022-11-14T09:04:44.909Z,5.51
2022-11-14T09:05:52.439Z,3.41
2022-11-14T09:06:54.989Z,2.58
2022-11-14T09:07:59.895Z,4.47
2022-11-14T09:09:02.063Z,2.78
2022-11-14T09:10:05.840Z,1.73
2022-11-14T09:11:10.076Z,2.51
2022-11-14T09:12:11.876Z,6.75
2022-11-14T09:13:13.788Z,8.94
2022-11-14T09:14:15.950Z,4.53
2022-11-14T09:15:18.026Z,3.13
2022-11-14T09:16:20.003Z,6.53
2022-11-14T09:17:21.887Z,2.50
2022-11-14T09:18:24.772Z,2.05
2022-11-14T09:19:26.664Z,2.67
2022-11-14T09:20:34.048Z,3.94
2022-11-14T09:21:33.497Z,5.68
2022-11-14T09:22:35.474Z,3.77
2022-11-14T09:23:37.396Z,3.99
2022-11-14T09:24:40.610Z,2.90
2022-11-14T09:25:42.932Z,6.11
2022-11-14T09:26:45.961Z,2.63
2022-11-14T09:27:48.001Z,1.32
2022-11-14T09:28:50.095Z,2.41
2022-11-14T09:29:52.093Z,2.49
2022-11-14T09:30:59.895Z,2.02
2022-11-14T09:32:01.948Z,1.73
2022-11-14T09:33:11.110Z,1.92
2022-11-14T09:34:09.830Z,3.35
2022-11-14T09:35:11.785Z,2.49
2022-11-14T09:36:14.241Z,2.48
2022-11-14T09:37:16.152Z,3.03
2022-11-14T09:38:18.432Z,3.37
2022-11-14T09:39:20.404Z,2.82
2022-11-14T09:40:22.571Z,2.77
2022-11-14T09:41:37.899Z,2.28
2022-11-14T09:43:02.963Z,2.98
2022-11-14T09:44:23.914Z,5.38
2022-11-14T09:45:27.655Z,3.98
2022-11-14T09:46:39.025Z,2.31
2022-11-14T09:47:44.685Z,2.18
2022-11-14T09:48:47.628Z,2.69
2022-11-14T09:49:53.268Z,1.81
2022-11-14T09:51:08.275Z,1.97
2022-11-14T09:52:30.843Z,1.78
2022-11-14T09:53:39.387Z,2.16
2022-11-14T09:54:48.230Z,2.07
2022-11-14T09:55:51.361Z,1.57
2022-11-14T09:56:54.952Z,1.55
2022-11-14T09:57:57.744Z,2.02
2022-11-14T09:59:00.752Z,2.94
2022-11-14T10:00:17.985Z,2.13
2022-11-14T10:01:45.139Z,2.46
2022-11-14T10:03:11.065Z,2.24
2022-11-14T10:04:37.099Z,2.52
2022-11-14T10:05:56.026Z,1.53
2022-11-14T10:07:07.697Z,2.28
2022-11-14T10:08:17.841Z,1.67
2022-11-14T10:11:10.264Z,1.46
2022-11-14T10:13:32.618Z,2.06
2022-11-14T10:14:48.001Z,1.74
2022-11-14T10:15:59.572Z,2.02
2022-11-14T10:17:34.296Z,1.99
2022-11-14T10:18:45.521Z,2.04
2022-11-14T10:19:51.216Z,1.80
2022-11-14T10:20:56.397Z,1.84
2022-11-14T10:22:19.038Z,2.21
2022-11-14T10:23:46.274Z,1.93
2022-11-14T10:25:12.355Z,2.61
2022-11-14T10:26:28.831Z,2.16
2022-11-14T10:27:34.822Z,1.94
2022-11-14T10:28:55.472Z,1.91
2022-11-14T10:30:13.305Z,2.46
2022-11-14T10:31:28.614Z,2.78
2022-11-14T10:32:34.297Z,2.94
2022-11-14T10:34:15.253Z,2.67
2022-11-14T10:37:00.204Z,3.03
2022-11-14T10:39:43.248Z,3.98
2022-11-14T10:40:49.102Z,2.78
2022-11-14T10:41:58.795Z,3.13
2022-11-14T10:43:06.260Z,2.55
2022-11-14T10:44:12.044Z,3.14
2022-11-14T10:45:36.409Z,2.79
2022-11-14T10:46:51.364Z,2.24
2022-11-14T10:49:19.978Z,1.93
2022-11-14T10:50:46.955Z,2.08
2022-11-14T10:51:55.238Z,1.79
2022-11-14T10:53:00.849Z,1.71
2022-11-14T10:54:15.106Z,1.78
2022-11-14T10:55:32.027Z,1.78
2022-11-14T10:56:26.212Z,2.26
2022-11-14T10:57:29.153Z,1.91
2022-11-14T10:58:46.802Z,1.89
2022-11-14T10:59:36.047Z,1.62
2022-11-14T11:00:38.121Z,1.92
2022-11-14T11:01:56.078Z,1.96
2022-11-14T11:02:58.108Z,2.02
2022-11-14T11:04:29.238Z,2.57
2022-11-14T11:05:31.620Z,1.87
2022-11-14T11:06:33.714Z,2.40
2022-11-14T11:07:40.433Z,2.43
2022-11-14T11:08:44.432Z,3.17
2022-11-14T11:09:51.145Z,2.74
2022-11-14T11:10:57.646Z,2.50
2022-11-14T11:12:01.962Z,2.81
2022-11-14T11:13:05.040Z,2.60
2022-11-14T11:14:16.855Z,2.83
2022-11-14T11:15:26.810Z,3.41
2022-11-14T11:16:30.062Z,3.13
2022-11-14T11:17:37.337Z,3.21
2022-11-14T11:18:37.108Z,2.10
2022-11-14T11:19:39.314Z,2.64
2022-11-14T11:20:42.298Z,2.96
2022-11-14T11:21:50.184Z,2.61
2022-11-14T11:23:10.654Z,2.56
2022-11-14T11:24:16.499Z,2.63
2022-11-14T11:25:24.649Z,2.63
2022-11-14T11:26:29.820Z,2.77
2022-11-14T11:27:32.220Z,2.67
2022-11-14T11:28:36.350Z,1.90
2022-11-14T11:29:38.331Z,1.88
2022-11-14T11:30:55.437Z,1.81
2022-11-14T11:31:59.074Z,2.20
2022-11-14T11:33:21.052Z,2.79
2022-11-14T11:34:32.183Z,3.83
2022-11-14T11:35:35.911Z,2.43
2022-11-14T11:36:44.625Z,3.16
2022-11-14T11:37:56.116Z,3.27
2022-11-14T11:39:00.187Z,2.53
2022-11-14T11:40:06.217Z,2.79
2022-11-14T11:43:31.684Z,2.23
2022-11-14T11:43:57.239Z,3.89
2022-11-14T11:45:03.529Z,3.46
2022-11-14T11:46:15.971Z,2.94
2022-11-14T11:47:19.255Z,3.00
2022-11-14T11:48:24.540Z,2.29
2022-11-14T11:49:36.955Z,2.42
2022-11-14T11:50:40.721Z,2.91
2022-11-14T11:51:45.267Z,2.92
2022-11-14T11:53:07.813Z,2.93
2022-11-14T11:54:19.366Z,3.19
2022-11-14T11:55:31.329Z,3.00
2022-11-14T11:56:35.359Z,2.81
2022-11-14T11:57:44.208Z,2.84
2022-11-14T11:58:52.142Z,3.41
2022-11-14T12:00:07.423Z,3.08
2022-11-14T12:01:11.506Z,3.63
2022-11-14T12:02:27.838Z,3.41
2022-11-14T12:03:30.113Z,3.66
2022-11-14T12:04:32.152Z,3.09
2022-11-14T12:05:43.837Z,3.73
2022-11-14T12:06:55.823Z,4.10
2022-11-14T12:08:05.274Z,3.67
2022-11-14T12:09:19.781Z,4.14
2022-11-14T12:10:29.128Z,5.28
2022-11-14T12:11:37.549Z,4.77
2022-11-14T12:12:46.977Z,3.70
2022-11-14T12:13:57.972Z,3.47
2022-11-14T12:15:16.359Z,4.36
2022-11-14T12:16:30.843Z,6.24
2022-11-14T12:18:55.658Z,4.24
2022-11-14T12:20:07.519Z,4.88
2022-11-14T12:21:19.245Z,4.38
2022-11-14T12:22:30.398Z,3.03
2022-11-14T12:23:54.592Z,2.71
2022-11-14T12:25:03.498Z,2.98
2022-11-14T12:26:21.565Z,2.87
2022-11-14T12:27:36.114Z,2.39
2022-11-14T12:28:58.865Z,2.46
2022-11-14T12:30:19.369Z,2.32
2022-11-14T12:31:23.913Z,2.09
2022-11-14T12:32:33.227Z,3.18
2022-11-14T12:33:39.340Z,1.89
2022-11-14T12:34:44.244Z,1.59
2022-11-14T12:37:11.915Z,1.87
2022-11-14T12:38:18.170Z,1.84
2022-11-14T12:39:30.512Z,1.82
2022-11-14T12:40:41.726Z,2.01
2022-11-14T12:41:43.676Z,1.52
2022-11-14T12:42:47.936Z,2.44
2022-11-14T12:43:50.454Z,1.99
2022-11-14T12:44:52.519Z,2.49
2022-11-14T12:45:59.611Z,2.53
2022-11-14T12:47:08.445Z,2.74
2022-11-14T12:48:26.566Z,2.66
2022-11-14T12:49:53.350Z,2.16
2022-11-14T12:50:57.611Z,2.12
2022-11-14T12:51:59.850Z,2.19
2022-11-14T12:53:03.014Z,2.04
2022-11-14T12:54:08.816Z,2.14
2022-11-14T12:56:37.204Z,1.74
2022-11-14T12:57:46.015Z,2.38
2022-11-14T12:59:12.898Z,2.29
2022-11-14T13:00:17.505Z,2.07
2022-11-14T13:01:26.337Z,2.01
2022-11-14T13:02:41.186Z,2.14
2022-11-14T13:03:56.295Z,2.12
2022-11-14T13:05:36.585Z,1.98
2022-11-14T13:06:42.579Z,2.65
2022-11-14T13:08:00.972Z,2.33
2022-11-14T13:10:46.956Z,2.22
2022-11-14T13:11:49.577Z,2.37
2022-11-14T13:13:13.336Z,2.22
2022-11-14T13:14:18.500Z,2.23
2022-11-14T13:15:30.130Z,1.42
2022-11-14T13:16:32.547Z,1.81
2022-11-14T13:17:35.309Z,2.31
2022-11-14T13:18:56.624Z,2.44
2022-11-14T13:19:59.522Z,2.62
2022-11-14T13:21:05.099Z,2.88
2022-11-14T13:22:17.799Z,3.35
2022-11-14T13:23:30.312Z,4.31
2022-11-14T13:25:02.230Z,4.77
2022-11-14T13:26:14.309Z,4.80
2022-11-14T13:28:00.137Z,4.56
2022-11-14T13:28:46.951Z,3.73
2022-11-14T13:29:49.188Z,4.36
2022-11-14T13:31:17.807Z,4.31
2022-11-14T13:32:43.376Z,3.78
2022-11-14T13:33:50.322Z,3.02
2022-11-14T13:36:28.905Z,2.51
2022-11-14T13:37:44.259Z,2.22
2022-11-14T13:39:05.339Z,2.44
2022-11-14T13:40:28.734Z,2.38
2022-11-14T13:41:47.473Z,2.51
2022-11-14T13:42:51.810Z,2.56
2022-11-14T13:44:12.904Z,2.81
2022-11-14T13:45:30.576Z,3.01
2022-11-14T13:46:45.940Z,3.07
2022-11-14T13:49:14.204Z,3.46
2022-11-14T13:50:20.257Z,3.56
2022-11-14T13:51:42.852Z,4.02
2022-11-14T13:52:33.938Z,3.59
2022-11-14T13:53:39.598Z,4.08
2022-11-14T13:54:47.549Z,3.77
2022-11-14T13:56:05.657Z,4.81
2022-11-14T13:57:29.743Z,4.49
2022-11-14T13:58:47.882Z,5.14
2022-11-14T13:59:53.560Z,5.03
2022-11-14T14:01:17.335Z,4.72
2022-11-14T14:02:23.148Z,5.07
2022-11-14T14:03:34.818Z,4.72
2022-11-14T14:05:06.739Z,5.03
2022-11-14T14:06:27.948Z,5.21
2022-11-14T14:07:46.545Z,4.65
2022-11-14T14:09:16.768Z,4.07
2022-11-14T14:10:31.615Z,4.81
2022-11-14T14:11:55.490Z,3.74
2022-11-14T14:14:20.969Z,4.18
2022-11-14T14:15:35.739Z,5.23
2022-11-14T14:16:58.345Z,4.36
2022-11-14T14:18:09.534Z,4.78
2022-11-14T14:19:39.515Z,5.17
2022-11-14T14:20:46.354Z,4.94
2022-11-14T14:23:30.176Z,5.41
2022-11-14T14:24:59.965Z,5.41
2022-11-14T14:26:05.729Z,5.41
2022-11-14T14:27:26.235Z,6.14
2022-11-14T14:28:50.751Z,6.30
2022-11-14T14:30:14.749Z,7.96
2022-11-14T14:31:19.383Z,8.28
2022-11-14T14:32:21.439Z,9.43
2022-11-14T14:33:23.453Z,10.10
2022-11-14T14:34:31.715Z,11.30
2022-11-14T14:35:40.383Z,12.43
2022-11-14T14:36:44.020Z,12.52
2022-11-14T14:37:50.896Z,12.80
2022-11-14T14:39:15.228Z,12.18
2022-11-14T14:40:30.232Z,10.77
2022-11-14T14:41:34.029Z,11.08
2022-11-14T14:42:39.341Z,10.32
2022-11-14T14:43:44.624Z,9.93
2022-11-14T14:44:47.906Z,10.41
2022-11-14T14:45:52.605Z,10.68
2022-11-14T14:46:55.240Z,10.32
2022-11-14T14:48:12.573Z,10.10
2022-11-14T14:49:24.099Z,9.94
2022-11-14T14:51:45.501Z,10.08
2022-11-14T14:52:59.819Z,9.82
2022-11-14T14:54:03.237Z,10.36
2022-11-14T14:55:09.305Z,9.11
2022-11-14T14:56:21.348Z,6.98
2022-11-14T14:57:24.660Z,6.99